Time;durP1;ratioP1;P1;durP2;ratioP2;P2;SDS_P1;SDS_P2;PMS_P1;PMS_P2;Temp;Humidity;BMP_temperature;BMP_pressure;BME280_temperature;BME280_humidity;BME280_pressure;Samples;Min_cycle;Max_cycle;Signal;HPM_P1;HPM_P2
2023/03/24 00:01:56;;;;;;;4.63;1.97;;;12.20;99.90;;;;;;5096629;27;20199;-56
2023/03/24 00:04:23;;;;;;;2.87;1.57;;;12.20;99.90;;;;;;5099582;28;20207;-55
2023/03/24 00:06:51;;;;;;;3.47;1.60;;;12.20;99.90;;;;;;5095231;28;20219;-56
2023/03/24 00:09:18;;;;;;;4.37;1.70;;;12.20;99.90;;;;;;5101235;28;20212;-56
2023/03/24 00:11:45;;;;;;;4.60;2.23;;;12.20;99.90;;;;;;5081054;28;20705;-56
2023/03/24 00:14:12;;;;;;;3.13;2.03;;;12.20;99.90;;;;;;5097479;28;20206;-56
2023/03/24 00:16:42;;;;;;;4.40;2.10;;;12.20;99.90;;;;;;5097455;27;20319;-55
2023/03/24 00:19:10;;;;;;;4.97;1.73;;;12.20;99.90;;;;;;5100399;27;21989;-56
2023/03/24 00:21:37;;;;;;;4.53;1.73;;;12.20;99.90;;;;;;5100312;27;20264;-56
2023/03/24 00:24:08;;;;;;;5.03;1.73;;;12.20;99.90;;;;;;5077414;28;20640;-57
2023/03/24 00:26:37;;;;;;;3.33;2.20;;;12.20;99.90;;;;;;5079219;28;20290;-56
2023/03/24 00:29:06;;;;;;;2.27;1.70;;;12.30;99.90;;;;;;5079241;28;20191;-55
2023/03/24 00:31:38;;;;;;;4.03;1.90;;;12.30;99.90;;;;;;5098143;27;20196;-55
2023/03/24 00:34:07;;;;;;;2.07;1.77;;;12.30;99.90;;;;;;5098955;28;20203;-57
2023/03/24 00:36:35;;;;;;;5.90;1.90;;;12.40;99.90;;;;;;5081979;28;20290;-56
2023/03/24 00:39:05;;;;;;;4.03;2.00;;;12.40;99.90;;;;;;5099236;27;20253;-56
2023/03/24 00:41:32;;;;;;;3.97;1.80;;;12.40;99.90;;;;;;5100755;28;20201;-56
2023/03/24 00:44:04;;;;;;;1.80;1.70;;;12.40;99.90;;;;;;5097846;28;20310;-56
2023/03/24 00:46:32;;;;;;;4.13;2.00;;;12.50;99.90;;;;;;5098925;27;20350;-56
2023/03/24 00:49:04;;;;;;;2.77;1.50;;;12.50;99.90;;;;;;5099744;28;20272;-56
2023/03/24 00:51:35;;;;;;;6.27;1.90;;;12.60;99.90;;;;;;5094715;28;20645;-56
2023/03/24 00:54:03;;;;;;;3.23;2.07;;;12.60;99.90;;;;;;5095696;28;20248;-56
2023/03/24 00:56:32;;;;;;;2.27;1.23;;;12.70;99.90;;;;;;5094475;28;20214;-56
2023/03/24 00:59:01;;;;;;;3.40;1.50;;;12.70;99.90;;;;;;5098172;28;20737;-55
2023/03/24 01:01:33;;;;;;;2.97;1.60;;;12.70;99.90;;;;;;5097736;28;20203;-56
2023/03/24 01:04:01;;;;;;;3.07;1.80;;;12.70;99.90;;;;;;5096762;28;20213;-56
2023/03/24 01:06:29;;;;;;;1.83;1.40;;;12.80;99.90;;;;;;5098167;28;20242;-56
2023/03/24 01:08:56;;;;;;;1.90;1.30;;;12.90;99.90;;;;;;5099346;28;20743;-56
2023/03/24 01:11:25;;;;;;;2.43;1.53;;;12.90;99.90;;;;;;5098001;28;20193;-56
2023/03/24 01:13:53;;;;;;;2.03;1.20;;;12.90;99.90;;;;;;5092903;28;20292;-56
2023/03/24 01:16:24;;;;;;;3.13;1.20;;;12.90;99.90;;;;;;5076638;28;20199;-56
2023/03/24 01:18:51;;;;;;;2.43;1.70;;;12.90;99.90;;;;;;5097488;28;20985;-56
2023/03/24 01:21:18;;;;;;;3.53;1.50;;;12.90;99.90;;;;;;5099280;28;20198;-56
2023/03/24 01:23:46;;;;;;;2.10;1.70;;;12.90;99.90;;;;;;5099433;28;20302;-56
2023/03/24 01:26:13;;;;;;;1.57;1.20;;;12.90;99.90;;;;;;5098566;28;20695;-56
2023/03/24 01:28:42;;;;;;;3.33;1.70;;;12.90;99.90;;;;;;5082415;28;20204;-56
2023/03/24 01:31:10;;;;;;;3.33;1.47;;;12.80;99.90;;;;;;5080756;28;20198;-56
2023/03/24 01:33:37;;;;;;;3.77;1.80;;;12.80;99.90;;;;;;5099497;28;21084;-56
2023/03/24 01:36:05;;;;;;;3.27;1.23;;;12.80;99.90;;;;;;5097253;28;20291;-56
2023/03/24 01:38:32;;;;;;;3.70;2.87;;;12.70;99.90;;;;;;5096501;28;20198;-56
2023/03/24 01:40:59;;;;;;;2.13;1.30;;;12.70;99.90;;;;;;5098231;28;20207;-56
2023/03/24 01:43:32;;;;;;;1.77;1.60;;;12.70;99.90;;;;;;5096745;28;20338;-56
2023/03/24 01:46:13;;;;;;;3.17;1.63;;;12.70;99.90;;;;;;5096947;28;20218;-56
2023/03/24 01:48:49;;;;;;;2.80;1.40;;;12.60;99.90;;;;;;5079561;28;20426;-56
2023/03/24 01:51:16;;;;;;;1.70;1.37;;;12.60;99.90;;;;;;5078918;28;20223;-56
2023/03/24 01:54:00;;;;;;;2.83;1.97;;;12.70;99.90;;;;;;5099105;28;20247;-56
2023/03/24 01:56:30;;;;;;;3.23;1.60;;;12.70;99.90;;;;;;5082119;28;20208;-56
2023/03/24 01:59:01;;;;;;;2.23;1.50;;;12.70;99.90;;;;;;5063734;28;20219;-56
2023/03/24 02:01:29;;;;;;;2.23;1.67;;;12.60;99.90;;;;;;5077208;28;20222;-57
2023/03/24 02:04:03;;;;;;;2.33;1.50;;;12.60;99.90;;;;;;5080590;28;20735;-57
2023/03/24 02:06:40;;;;;;;2.97;1.77;;;12.60;99.90;;;;;;5094675;28;20538;-56
2023/03/24 02:09:09;;;;;;;1.33;1.17;;;12.60;99.90;;;;;;5097240;28;20198;-58
2023/03/24 02:11:37;;;;;;;3.17;1.70;;;12.60;99.90;;;;;;5098590;28;20199;-55
2023/03/24 02:14:06;;;;;;;3.70;1.73;;;12.60;99.90;;;;;;5078905;28;20964;-55
2023/03/24 02:16:58;;;;;;;5.03;1.83;;;12.50;99.90;;;;;;5097408;28;20194;-55
2023/03/24 02:19:56;;;;;;;2.10;1.73;;;12.50;99.90;;;;;;5098082;28;20235;-55
2023/03/24 02:22:51;;;;;;;3.50;1.43;;;12.50;99.90;;;;;;5098760;28;20215;-62
2023/03/24 02:25:38;;;;;;;1.63;1.53;;;12.50;99.90;;;;;;5094059;28;20203;-55
2023/03/24 02:28:36;;;;;;;2.40;1.83;;;12.50;99.90;;;;;;5098760;28;20223;-55
2023/03/24 02:31:25;;;;;;;2.70;1.80;;;12.50;99.90;;;;;;5092842;28;20234;-57
2023/03/24 02:34:14;;;;;;;2.53;1.53;;;12.50;99.90;;;;;;5091661;28;20204;-56
2023/03/24 02:37:11;;;;;;;2.47;1.60;;;12.50;99.90;;;;;;5097146;28;20560;-56
2023/03/24 02:40:20;;;;;;;2.43;2.00;;;12.60;99.90;;;;;;5096019;28;20206;-56
2023/03/24 02:43:23;;;;;;;1.87;1.67;;;12.60;99.90;;;;;;5079563;28;20647;-55
2023/03/24 02:46:07;;;;;;;1.70;1.43;;;12.60;99.90;;;;;;5093915;28;20222;-55
2023/03/24 02:48:59;;;;;;;4.57;2.23;;;12.60;99.90;;;;;;5093904;28;20702;-56
2023/03/24 02:51:32;;;;;;;3.20;1.90;;;12.70;99.90;;;;;;5072930;28;20220;-56
2023/03/24 02:54:07;;;;;;;1.93;1.33;;;12.50;99.90;;;;;;5073431;28;20196;-56
2023/03/24 02:56:45;;;;;;;2.73;0.90;;;12.20;99.90;;;;;;5077486;28;21053;-57
2023/03/24 02:59:30;;;;;;;5.50;0.90;;;12.00;99.90;;;;;;5076135;28;20215;-56
2023/03/24 03:02:22;;;;;;;0.57;0.57;;;11.90;99.90;;;;;;5076001;28;20286;-55
2023/03/24 03:05:07;;;;;;;2.10;0.70;;;11.90;99.90;;;;;;5056290;28;20203;-57
2023/03/24 03:07:40;;;;;;;0.97;0.70;;;11.80;99.90;;;;;;5077754;28;20858;-55
2023/03/24 03:10:20;;;;;;;1.53;0.60;;;11.60;99.90;;;;;;5074747;28;20196;-56
2023/03/24 03:12:51;;;;;;;2.17;1.00;;;11.60;99.90;;;;;;5076308;28;20200;-56
2023/03/24 03:15:23;;;;;;;2.63;0.60;;;11.70;99.90;;;;;;5074763;28;20192;-56
2023/03/24 03:18:04;;;;;;;2.20;0.80;;;11.60;99.90;;;;;;5077898;28;20274;-61
2023/03/24 03:20:38;;;;;;;2.07;0.77;;;11.50;99.90;;;;;;5058508;28;20708;-56
2023/03/24 03:23:12;;;;;;;2.00;0.70;;;11.50;99.90;;;;;;5075587;28;20244;-57
2023/03/24 03:25:49;;;;;;;4.37;0.60;;;11.50;99.90;;;;;;5058588;28;20277;-57
2023/03/24 03:28:20;;;;;;;0.97;0.40;;;11.50;99.90;;;;;;5057426;28;20203;-56
2023/03/24 03:30:56;;;;;;;1.03;0.50;;;11.50;99.90;;;;;;5059112;28;20222;-56
2023/03/24 03:33:35;;;;;;;1.13;0.60;;;11.50;99.90;;;;;;5070536;28;20640;-56
2023/03/24 03:36:14;;;;;;;2.70;0.70;;;11.40;99.90;;;;;;5077440;28;20294;-56
2023/03/24 03:38:46;;;;;;;3.97;0.70;;;11.40;99.90;;;;;;5077771;28;20714;-55
2023/03/24 03:41:17;;;;;;;1.87;0.60;;;11.30;99.90;;;;;;5078460;28;20241;-56
2023/03/24 03:43:46;;;;;;;2.10;0.70;;;11.30;99.90;;;;;;5062727;28;20207;-57
2023/03/24 03:46:14;;;;;;;3.43;0.90;;;11.20;99.90;;;;;;5078033;28;20646;-56
2023/03/24 03:48:41;;;;;;;2.80;0.70;;;11.20;99.90;;;;;;5085651;28;20238;-55
2023/03/24 03:51:09;;;;;;;2.73;1.30;;;11.10;99.90;;;;;;5100958;28;20194;-56
2023/03/24 03:53:48;;;;;;;2.50;1.27;;;11.00;99.90;;;;;;5080437;28;20195;-56
2023/03/24 03:56:19;;;;;;;4.83;1.60;;;11.00;99.90;;;;;;5098998;28;20233;-55
2023/03/24 03:58:47;;;;;;;2.80;1.67;;;10.90;99.90;;;;;;5094899;28;20206;-56
2023/03/24 04:01:18;;;;;;;3.40;1.30;;;10.90;99.90;;;;;;5097780;28;20336;-56
2023/03/24 04:03:45;;;;;;;3.93;1.50;;;10.80;99.90;;;;;;5098911;28;20202;-56
2023/03/24 04:06:34;;;;;;;3.13;1.40;;;10.70;99.90;;;;;;5097561;28;20261;-55
2023/03/24 04:09:28;;;;;;;2.73;1.50;;;10.70;99.90;;;;;;5097795;28;20334;-56
2023/03/24 04:12:16;;;;;;;4.60;1.57;;;10.70;99.90;;;;;;5099726;28;21078;-58
2023/03/24 04:14:49;;;;;;;3.50;2.03;;;10.70;99.90;;;;;;5095336;28;20204;-56
2023/03/24 04:17:53;;;;;;;3.93;1.67;;;10.70;99.90;;;;;;5099636;28;20209;-56
2023/03/24 04:20:45;;;;;;;5.47;1.80;;;10.70;99.90;;;;;;5079922;28;20237;-59
2023/03/24 04:23:32;;;;;;;6.20;1.80;;;10.80;99.90;;;;;;5080941;28;20196;-56
2023/03/24 04:26:09;;;;;;;5.30;2.17;;;10.70;99.90;;;;;;5080349;28;20640;-60
2023/03/24 04:28:51;;;;;;;4.27;1.80;;;10.70;99.90;;;;;;5095685;28;20188;-58
2023/03/24 04:31:32;;;;;;;4.60;3.23;;;10.70;99.90;;;;;;5098088;28;20193;-58
2023/03/24 04:34:11;;;;;;;5.67;3.53;;;10.60;99.90;;;;;;5096194;28;20204;-58
2023/03/24 04:36:49;;;;;;;6.23;3.20;;;10.70;99.90;;;;;;5099096;28;20246;-58
2023/03/24 04:39:26;;;;;;;4.30;2.70;;;10.70;99.90;;;;;;5094700;28;20299;-58
2023/03/24 04:41:56;;;;;;;5.57;2.37;;;10.80;99.90;;;;;;5100706;28;20205;-58
2023/03/24 04:44:25;;;;;;;5.63;2.80;;;10.80;99.90;;;;;;5095029;28;20744;-58
2023/03/24 04:46:56;;;;;;;9.03;2.30;;;10.70;99.90;;;;;;5100125;28;20766;-58
2023/03/24 04:49:24;;;;;;;6.37;2.30;;;10.70;99.90;;;;;;5079722;28;20241;-59
2023/03/24 04:51:52;;;;;;;3.90;1.83;;;10.60;99.90;;;;;;5099270;28;20254;-58
2023/03/24 04:54:21;;;;;;;6.27;2.10;;;10.60;99.90;;;;;;5092966;28;20237;-58
2023/03/24 04:56:58;;;;;;;6.33;2.30;;;10.60;99.90;;;;;;5099702;28;20196;-58
2023/03/24 04:59:24;;;;;;;6.60;1.87;;;10.50;99.90;;;;;;5095480;28;20198;-58
2023/03/24 05:01:52;;;;;;;4.23;1.47;;;10.50;99.90;;;;;;5093525;28;20214;-58
2023/03/24 05:04:22;;;;;;;11.07;2.50;;;10.40;99.90;;;;;;5074074;28;20867;-58
2023/03/24 05:06:49;;;;;;;9.80;2.30;;;10.40;99.90;;;;;;5096577;28;20247;-59
2023/03/24 05:09:17;;;;;;;6.07;1.80;;;10.40;99.90;;;;;;5080477;28;20413;-58
2023/03/24 05:11:45;;;;;;;7.53;2.23;;;10.40;99.90;;;;;;5081732;28;20212;-58
2023/03/24 05:14:12;;;;;;;5.73;2.53;;;10.40;99.90;;;;;;5097976;28;20200;-58
2023/03/24 05:16:40;;;;;;;9.67;2.57;;;10.40;99.90;;;;;;5095557;28;20656;-58
2023/03/24 05:19:07;;;;;;;10.07;2.40;;;10.40;99.90;;;;;;5098311;28;20229;-58
2023/03/24 05:21:34;;;;;;;6.47;1.93;;;10.40;99.90;;;;;;5077578;28;20320;-58
2023/03/24 05:24:01;;;;;;;6.00;2.10;;;10.40;99.90;;;;;;5097722;28;20205;-58
2023/03/24 05:26:29;;;;;;;3.77;1.57;;;10.40;99.90;;;;;;5094012;28;20308;-57
2023/03/24 05:28:59;;;;;;;6.10;2.33;;;10.40;99.90;;;;;;5080299;28;20199;-58
2023/03/24 05:31:26;;;;;;;3.30;1.77;;;10.50;99.90;;;;;;5075019;28;20224;-58
2023/03/24 05:33:53;;;;;;;6.23;2.60;;;10.40;99.90;;;;;;5098871;28;20229;-58
2023/03/24 05:36:20;;;;;;;7.30;1.90;;;10.50;99.90;;;;;;5095156;28;20567;-58
2023/03/24 05:38:47;;;;;;;7.87;2.40;;;10.40;99.90;;;;;;5079244;28;20198;-58
2023/03/24 05:41:13;;;;;;;8.10;2.10;;;10.40;99.90;;;;;;5094814;28;20619;-58
2023/03/24 05:43:40;;;;;;;4.33;1.70;;;10.40;99.90;;;;;;5097556;28;20197;-58
2023/03/24 05:46:07;;;;;;;14.20;2.17;;;10.40;99.90;;;;;;5075619;28;20220;-58
2023/03/24 05:48:34;;;;;;;10.73;1.63;;;10.40;99.90;;;;;;5097977;28;20231;-58
2023/03/24 05:51:01;;;;;;;8.43;2.10;;;10.40;99.90;;;;;;5097164;28;20218;-64
2023/03/24 05:53:28;;;;;;;13.93;2.37;;;10.40;99.90;;;;;;5095140;28;20237;-58
2023/03/24 05:55:57;;;;;;;7.07;1.93;;;10.40;99.90;;;;;;5078356;28;20649;-60
2023/03/24 05:58:24;;;;;;;9.83;2.97;;;10.40;99.90;;;;;;5067095;28;20597;-61
2023/03/24 06:00:53;;;;;;;11.37;2.60;;;10.40;99.90;;;;;;5098536;28;20618;-58
2023/03/24 06:03:20;;;;;;;10.33;3.43;;;10.30;99.90;;;;;;5066176;28;20635;-58
2023/03/24 06:05:48;;;;;;;7.33;2.60;;;10.30;99.90;;;;;;5081081;28;20751;-67
2023/03/24 06:08:15;;;;;;;12.80;2.50;;;10.30;99.90;;;;;;5081218;28;20568;-58
2023/03/24 06:10:42;;;;;;;12.13;2.60;;;10.30;99.90;;;;;;5075193;28;20204;-58
2023/03/24 06:13:10;;;;;;;5.67;2.50;;;10.30;99.90;;;;;;5100143;28;20240;-58
2023/03/24 06:15:41;;;;;;;8.33;2.33;;;10.30;99.90;;;;;;5097024;28;20272;-58
2023/03/24 06:18:08;;;;;;;6.80;2.00;;;10.40;99.90;;;;;;5099086;28;20232;-59
2023/03/24 06:20:35;;;;;;;7.37;2.10;;;10.40;99.90;;;;;;5081453;28;20570;-60
2023/03/24 06:23:02;;;;;;;9.40;2.27;;;10.40;99.90;;;;;;5063611;28;21706;-59
2023/03/24 06:25:29;;;;;;;9.03;2.30;;;10.40;99.90;;;;;;5095804;28;20215;-59
2023/03/24 06:28:02;;;;;;;5.07;1.70;;;10.40;99.90;;;;;;5062197;28;20211;-59
2023/03/24 06:30:29;;;;;;;6.33;2.10;;;10.30;99.90;;;;;;5094891;28;20298;-60
2023/03/24 06:32:57;;;;;;;6.70;1.83;;;10.40;99.90;;;;;;5074409;28;20604;-59
2023/03/24 06:35:24;;;;;;;10.10;2.37;;;10.40;99.90;;;;;;5095809;28;20278;-59
2023/03/24 06:37:51;;;;;;;9.00;2.33;;;10.50;99.90;;;;;;5098419;28;20586;-60
2023/03/24 06:40:18;;;;;;;8.70;2.47;;;10.60;99.90;;;;;;5095200;28;20291;-59
2023/03/24 06:42:45;;;;;;;8.37;2.10;;;10.70;99.90;;;;;;5078745;28;20214;-59
2023/03/24 06:45:12;;;;;;;7.17;1.93;;;10.70;99.90;;;;;;5095568;28;20590;-60
2023/03/24 06:47:39;;;;;;;7.23;2.07;;;10.70;99.90;;;;;;5064937;28;20260;-59
2023/03/24 06:50:06;;;;;;;8.97;2.13;;;10.80;99.90;;;;;;5096949;28;20227;-58
2023/03/24 06:52:34;;;;;;;3.73;1.17;;;10.80;99.90;;;;;;5095701;28;20247;-60
2023/03/24 06:55:02;;;;;;;5.43;1.80;;;10.80;99.90;;;;;;5087367;28;20614;-58
2023/03/24 06:57:29;;;;;;;7.00;1.70;;;10.90;99.90;;;;;;5096611;28;20241;-58
2023/03/24 06:59:56;;;;;;;5.80;1.57;;;10.90;99.90;;;;;;5093466;28;20568;-59
2023/03/24 07:02:23;;;;;;;8.67;1.77;;;11.00;99.90;;;;;;5090183;28;20491;-58
2023/03/24 07:04:52;;;;;;;9.63;1.83;;;11.00;99.90;;;;;;5077542;28;20199;-58
2023/03/24 07:07:21;;;;;;;5.90;1.60;;;11.10;99.90;;;;;;5097438;28;20327;-59
2023/03/24 07:10:08;;;;;;;7.23;1.80;;;11.10;99.90;;;;;;5099334;28;20646;-60
2023/03/24 07:12:35;;;;;;;5.00;1.50;;;11.20;99.90;;;;;;5102091;28;20210;-59
2023/03/24 07:15:03;;;;;;;5.93;1.83;;;11.30;99.90;;;;;;5098892;28;20245;-59
2023/03/24 07:17:30;;;;;;;6.33;1.83;;;11.30;99.90;;;;;;5081575;28;20235;-58
2023/03/24 07:19:57;;;;;;;13.53;2.30;;;11.30;99.90;;;;;;5079826;28;20701;-59
2023/03/24 07:22:24;;;;;;;7.40;2.00;;;11.40;99.90;;;;;;4730745;28;10000713;-58
2023/03/24 07:24:51;;;;;;;8.47;1.50;;;11.40;99.90;;;;;;5070474;28;20630;-58
2023/03/24 07:27:20;;;;;;;6.80;1.63;;;11.70;99.90;;;;;;5095947;28;20211;-58
2023/03/24 07:29:46;;;;;;;8.70;1.50;;;11.80;99.90;;;;;;5079476;28;20348;-58
2023/03/24 07:32:14;;;;;;;9.57;1.80;;;11.70;99.90;;;;;;5097144;28;20218;-58
2023/03/24 07:34:42;;;;;;;11.10;2.20;;;11.60;99.90;;;;;;5097500;28;20192;-58
2023/03/24 07:37:10;;;;;;;8.73;1.57;;;11.90;99.90;;;;;;5098197;28;20793;-59
2023/03/24 07:39:37;;;;;;;5.37;1.60;;;11.90;99.90;;;;;;5080698;28;20293;-59
2023/03/24 07:42:03;;;;;;;7.27;1.73;;;11.90;99.90;;;;;;5093979;28;20301;-58
2023/03/24 07:44:30;;;;;;;7.40;1.63;;;12.00;99.90;;;;;;5094592;28;20285;-58
2023/03/24 07:46:57;;;;;;;6.47;1.80;;;12.00;99.90;;;;;;5079357;28;20206;-58
2023/03/24 07:49:24;;;;;;;6.57;2.20;;;11.90;99.90;;;;;;5079565;28;20864;-58
2023/03/24 07:51:51;;;;;;;7.57;1.90;;;11.70;99.90;;;;;;5076669;28;20783;-58
2023/03/24 07:54:18;;;;;;;11.00;2.80;;;11.60;99.90;;;;;;5089459;28;20208;-59
2023/03/24 07:56:45;;;;;;;7.40;1.83;;;11.70;99.90;;;;;;5094136;28;20288;-58
2023/03/24 07:59:12;;;;;;;10.57;2.17;;;11.70;99.90;;;;;;5079362;28;20652;-58
2023/03/24 08:01:39;;;;;;;10.90;2.10;;;11.80;99.90;;;;;;5094487;28;21705;-58
2023/03/24 08:04:06;;;;;;;8.93;2.63;;;11.90;99.90;;;;;;5095311;27;20205;-59
2023/03/24 08:06:33;;;;;;;7.73;1.97;;;12.00;99.90;;;;;;5096532;27;20201;-59
2023/03/24 08:09:00;;;;;;;7.83;2.50;;;11.90;99.90;;;;;;5095302;28;20702;-58
2023/03/24 08:11:27;;;;;;;10.63;1.93;;;12.10;99.90;;;;;;5095748;28;20279;-57
2023/03/24 08:13:54;;;;;;;7.43;1.97;;;12.00;99.90;;;;;;5096949;28;20654;-59
2023/03/24 08:16:21;;;;;;;9.30;2.47;;;12.10;99.90;;;;;;5095835;28;20221;-57
2023/03/24 08:18:49;;;;;;;7.90;1.87;;;12.20;99.90;;;;;;5088789;28;20224;-58
2023/03/24 08:21:16;;;;;;;8.40;1.90;;;12.20;99.90;;;;;;5085781;28;20651;-58
2023/03/24 08:23:43;;;;;;;4.80;1.90;;;12.30;99.90;;;;;;5087613;28;20212;-58
2023/03/24 08:26:10;;;;;;;9.90;2.30;;;12.30;99.90;;;;;;5088548;28;20217;-58
2023/03/24 08:28:37;;;;;;;5.77;2.63;;;12.40;99.90;;;;;;5068817;28;20534;-58
2023/03/24 08:31:04;;;;;;;9.40;1.90;;;12.20;99.90;;;;;;5085946;28;20670;-58
2023/03/24 08:33:31;;;;;;;8.60;2.60;;;12.20;99.90;;;;;;5070885;28;20333;-58
2023/03/24 08:35:59;;;;;;;9.70;2.03;;;12.30;99.90;;;;;;5073207;28;20199;-58
2023/03/24 08:38:30;;;;;;;9.90;2.67;;;12.10;99.90;;;;;;5084851;28;21268;-58
2023/03/24 08:41:00;;;;;;;14.57;2.97;;;12.20;99.90;;;;;;5092373;28;20195;-58
2023/03/24 08:43:29;;;;;;;11.83;2.83;;;12.60;99.90;;;;;;5089570;28;20204;-57
2023/03/24 08:45:57;;;;;;;7.20;2.10;;;12.60;99.90;;;;;;5087351;28;20216;-58
2023/03/24 08:48:25;;;;;;;7.57;2.20;;;12.60;99.90;;;;;;5073481;28;20209;-58
2023/03/24 08:50:52;;;;;;;9.03;2.57;;;12.50;99.90;;;;;;5068963;28;20236;-57
2023/03/24 08:53:19;;;;;;;7.13;2.07;;;12.50;99.90;;;;;;5089239;28;20231;-59
2023/03/24 08:55:46;;;;;;;4.73;1.90;;;12.50;99.90;;;;;;5076979;28;20197;-57
2023/03/24 08:58:16;;;;;;;8.47;2.03;;;12.50;99.90;;;;;;5074458;28;20200;-57
2023/03/24 09:00:44;;;;;;;7.57;2.03;;;12.30;99.90;;;;;;5065092;28;20681;-57
2023/03/24 09:03:20;;;;;;;9.40;2.20;;;12.00;99.90;;;;;;5091229;28;20208;-57
2023/03/24 09:05:48;;;;;;;9.47;2.33;;;11.90;99.90;;;;;;5069974;28;20660;-58
2023/03/24 09:08:17;;;;;;;3.17;1.97;;;12.00;99.90;;;;;;5092283;28;20331;-58
2023/03/24 09:10:47;;;;;;;3.93;2.27;;;12.40;99.90;;;;;;5078518;28;20309;-58
2023/03/24 09:13:15;;;;;;;5.80;2.23;;;12.30;99.90;;;;;;5052404;28;20277;-61
2023/03/24 09:15:50;;;;;;;6.20;2.50;;;12.10;99.90;;;;;;5074496;28;20206;-60
2023/03/24 09:18:19;;;;;;;6.53;3.07;;;12.20;99.90;;;;;;5094462;28;20228;-58
2023/03/24 09:20:47;;;;;;;6.43;2.37;;;12.20;99.90;;;;;;5093324;28;20292;-58
2023/03/24 09:23:15;;;;;;;6.40;2.20;;;12.30;99.90;;;;;;5071622;28;20248;-58
2023/03/24 09:25:42;;;;;;;9.73;2.60;;;12.30;99.90;;;;;;5094183;28;20250;-58
2023/03/24 09:28:09;;;;;;;7.00;2.10;;;11.90;99.90;;;;;;5097601;28;20217;-58
2023/03/24 09:30:36;;;;;;;5.57;2.07;;;12.00;99.90;;;;;;5090660;28;20205;-58
2023/03/24 09:33:03;;;;;;;8.93;2.30;;;12.10;99.90;;;;;;5093019;28;20212;-58
2023/03/24 09:35:30;;;;;;;8.67;2.43;;;12.00;99.90;;;;;;5074880;28;20624;-57
2023/03/24 09:37:57;;;;;;;9.87;2.30;;;11.90;99.90;;;;;;5094164;28;20218;-58
2023/03/24 09:40:26;;;;;;;5.97;2.10;;;12.00;99.90;;;;;;5071607;28;20329;-58
2023/03/24 09:43:05;;;;;;;4.70;2.20;;;12.10;99.90;;;;;;5073276;28;20214;-59
2023/03/24 09:45:46;;;;;;;6.43;2.00;;;12.60;99.90;;;;;;5091250;28;20205;-58
2023/03/24 09:48:18;;;;;;;6.37;2.07;;;13.00;99.90;;;;;;5090839;28;20217;-58
2023/03/24 09:51:00;;;;;;;4.97;2.00;;;12.90;99.90;;;;;;5088006;27;20230;-58
2023/03/24 09:53:48;;;;;;;8.23;2.67;;;12.70;99.90;;;;;;5091184;28;20196;-59
2023/03/24 09:56:19;;;;;;;5.10;2.10;;;12.90;99.90;;;;;;5090894;28;20864;-59
2023/03/24 09:59:12;;;;;;;7.73;2.50;;;12.90;99.90;;;;;;5078930;28;20673;-58
2023/03/24 10:01:39;;;;;;;6.63;2.50;;;12.80;99.90;;;;;;5078007;28;20221;-58
2023/03/24 10:04:20;;;;;;;9.63;1.80;;;12.80;99.90;;;;;;5085246;28;20197;-58
2023/03/24 10:06:52;;;;;;;6.70;2.40;;;12.80;99.90;;;;;;5087391;28;20201;-60
2023/03/24 10:09:27;;;;;;;4.10;2.30;;;12.40;99.90;;;;;;5088678;28;20248;-60
2023/03/24 10:12:15;;;;;;;5.20;2.27;;;12.00;99.90;;;;;;5087439;27;20204;-60
2023/03/24 10:14:51;;;;;;;7.53;2.23;;;11.70;99.90;;;;;;5091635;28;20676;-58
2023/03/24 10:17:32;;;;;;;3.90;2.30;;;11.60;99.90;;;;;;5090466;28;20197;-58
2023/03/24 10:20:40;;;;;;;7.73;2.43;;;11.70;99.90;;;;;;5086975;28;20209;-59
2023/03/24 10:23:35;;;;;;;8.83;2.57;;;11.70;99.90;;;;;;5082833;28;20220;-60
2023/03/24 10:26:31;;;;;;;3.90;2.93;;;11.70;99.90;;;;;;5092917;28;20661;-58
2023/03/24 10:28:58;;;;;;;8.43;2.60;;;11.60;99.90;;;;;;5090033;28;20286;-57
2023/03/24 10:31:31;;;;;;;7.87;2.67;;;11.70;99.90;;;;;;5088469;28;20648;-58
2023/03/24 10:33:59;;;;;;;6.87;3.00;;;12.10;99.90;;;;;;5090464;28;20550;-59
2023/03/24 10:36:27;;;;;;;5.53;2.47;;;12.20;99.90;;;;;;5074815;28;20246;-58
2023/03/24 10:38:54;;;;;;;5.27;2.80;;;12.40;99.90;;;;;;5094849;28;20228;-57
2023/03/24 10:41:27;;;;;;;7.20;3.60;;;12.70;99.90;;;;;;5098528;28;20205;-60
2023/03/24 10:43:56;;;;;;;6.17;2.80;;;12.50;99.90;;;;;;5096523;28;20220;-59
2023/03/24 10:46:26;;;;;;;6.37;2.67;;;12.30;99.90;;;;;;5076590;28;20205;-59
2023/03/24 10:49:15;;;;;;;9.27;3.13;;;12.10;99.90;;;;;;5095556;28;20246;-58
2023/03/24 10:51:51;;;;;;;9.80;3.23;;;11.80;99.90;;;;;;5084682;28;20625;-58
2023/03/24 10:54:26;;;;;;;7.13;2.70;;;11.90;99.90;;;;;;5086816;28;20619;-58
2023/03/24 10:56:59;;;;;;;10.27;2.83;;;11.90;99.90;;;;;;5091546;28;20278;-59
2023/03/24 10:59:27;;;;;;;3.90;2.30;;;12.20;99.90;;;;;;5092264;28;20210;-58
2023/03/24 11:01:59;;;;;;;12.73;2.70;;;12.10;99.90;;;;;;5082861;28;20209;-58
2023/03/24 11:04:29;;;;;;;8.70;2.53;;;12.30;99.90;;;;;;5084259;28;20285;-58
2023/03/24 11:07:19;;;;;;;9.73;2.83;;;12.40;99.90;;;;;;5092472;28;20325;-58
2023/03/24 11:10:08;;;;;;;7.03;2.60;;;12.30;99.90;;;;;;5089364;28;20551;-59
2023/03/24 11:12:41;;;;;;;8.20;2.23;;;12.60;99.90;;;;;;5085610;28;20210;-58
2023/03/24 11:15:19;;;;;;;9.77;2.60;;;12.70;99.90;;;;;;5085056;28;20194;-58
2023/03/24 11:17:55;;;;;;;8.67;2.63;;;12.70;99.90;;;;;;5085933;28;20227;-58
2023/03/24 11:20:38;;;;;;;6.80;3.10;;;12.70;99.90;;;;;;5086631;28;20198;-58
2023/03/24 11:23:19;;;;;;;8.33;2.13;;;12.70;99.90;;;;;;5084198;28;20273;-58
2023/03/24 11:26:00;;;;;;;8.83;2.23;;;12.50;99.90;;;;;;5090395;28;20234;-59
2023/03/24 11:28:34;;;;;;;5.20;2.47;;;12.20;99.90;;;;;;5092131;28;20565;-58
2023/03/24 11:31:07;;;;;;;2.63;2.03;;;11.70;99.90;;;;;;5070638;28;20304;-59
2023/03/24 11:33:42;;;;;;;5.73;2.70;;;11.50;99.90;;;;;;5090766;28;20214;-59
2023/03/24 11:36:29;;;;;;;5.83;2.43;;;11.40;99.90;;;;;;5092076;28;20573;-58
2023/03/24 11:39:09;;;;;;;6.50;2.53;;;11.50;99.90;;;;;;5076755;28;20641;-59
2023/03/24 11:41:39;;;;;;;10.10;3.03;;;11.50;99.90;;;;;;5097070;28;20234;-59
2023/03/24 11:44:38;;;;;;;8.43;2.93;;;11.60;99.90;;;;;;5091729;28;20207;-59
2023/03/24 11:47:10;;;;;;;5.63;2.53;;;11.50;99.90;;;;;;5074995;28;20257;-58
2023/03/24 11:50:08;;;;;;;6.17;2.03;;;11.40;99.90;;;;;;5080856;28;20415;-59
2023/03/24 11:52:45;;;;;;;3.83;1.00;;;11.40;99.90;;;;;;5085977;28;20209;-61
2023/03/24 11:55:16;;;;;;;5.37;1.20;;;11.20;99.90;;;;;;5081228;28;20194;-58
2023/03/24 11:57:49;;;;;;;2.67;0.83;;;11.00;99.90;;;;;;5087984;28;20230;-60
2023/03/24 12:00:44;;;;;;;6.33;1.20;;;10.90;99.90;;;;;;5093710;28;20568;-58
2023/03/24 12:03:49;;;;;;;6.10;2.07;;;10.60;99.90;;;;;;5082841;28;20217;-58
2023/03/24 12:06:40;;;;;;;2.03;1.10;;;10.70;99.90;;;;;;5073943;28;20214;-58
2023/03/24 12:09:10;;;;;;;6.73;1.50;;;10.90;99.90;;;;;;5090957;28;20690;-59
2023/03/24 12:11:51;;;;;;;3.23;1.80;;;11.10;99.90;;;;;;5091627;28;20661;-60
2023/03/24 12:14:44;;;;;;;4.77;1.83;;;11.30;99.90;;;;;;5093535;27;20225;-61
2023/03/24 12:17:22;;;;;;;6.07;1.90;;;11.50;99.90;;;;;;5061231;28;20201;-60
2023/03/24 12:20:30;;;;;;;5.03;1.87;;;11.80;99.90;;;;;;5097662;28;20213;-59
2023/03/24 12:23:37;;;;;;;7.63;2.40;;;12.20;99.90;;;;;;5085327;28;20227;-62
2023/03/24 12:26:24;;;;;;;3.10;1.83;;;13.30;99.90;;;;;;5030103;28;20667;-58
2023/03/24 12:29:09;;;;;;;4.20;1.53;;;13.20;99.90;;;;;;5021589;28;20769;-59
2023/03/24 12:31:48;;;;;;;3.77;1.60;;;13.20;99.90;;;;;;5029946;28;20201;-58
2023/03/24 12:34:52;;;;;;;3.53;1.47;;;13.10;99.90;;;;;;5028832;28;20213;-58
2023/03/24 12:37:45;;;;;;;2.77;1.40;;;13.40;99.90;;;;;;5031317;28;22398;-59
2023/03/24 12:40:33;;;;;;;4.40;1.43;;;13.60;99.90;;;;;;5031372;28;20209;-58
2023/03/24 12:43:30;;;;;;;2.90;1.47;;;14.00;99.90;;;;;;5034163;28;20805;-58
2023/03/24 12:46:04;;;;;;;7.87;2.13;;;14.30;99.90;;;;;;5022714;28;20201;-62
2023/03/24 12:48:54;;;;;;;4.97;1.60;;;14.40;99.90;;;;;;5023890;28;20571;-61
2023/03/24 12:51:26;;;;;;;5.80;1.37;;;14.60;99.90;;;;;;5030772;28;20769;-61
2023/03/24 12:54:11;;;;;;;3.33;1.33;;;14.40;99.90;;;;;;5024403;28;20206;-61
2023/03/24 12:57:04;;;;;;;3.83;1.40;;;14.10;99.90;;;;;;5035407;28;20245;-61
2023/03/24 12:59:53;;;;;;;3.70;1.30;;;13.90;99.90;;;;;;5047196;28;20226;-63
2023/03/24 13:02:20;;;;;;;4.50;1.30;;;13.90;99.90;;;;;;5092537;28;20203;-58
2023/03/24 13:04:48;;;;;;;2.77;1.33;;;13.80;99.90;;;;;;5091269;28;20200;-59
2023/03/24 13:07:24;;;;;;;4.73;1.30;;;13.50;99.90;;;;;;5094791;27;20206;-60
2023/03/24 13:10:03;;;;;;;3.03;0.90;;;13.10;99.90;;;;;;5099046;28;20305;-57
2023/03/24 13:13:00;;;;;;;5.53;1.10;;;12.80;99.90;;;;;;5095649;28;20403;-57
2023/03/24 13:15:37;;;;;;;1.60;0.90;;;12.70;99.90;;;;;;5097881;28;20251;-57
2023/03/24 13:18:10;;;;;;;3.27;1.23;;;12.70;99.90;;;;;;5086095;28;20235;-57
2023/03/24 13:20:49;;;;;;;2.67;1.20;;;12.50;99.90;;;;;;5094484;28;20247;-60